Parker, CO (80134)

6:15 AM MDT on September 21, 2017 (GMT -0600)
Stroh Ranch (Northwest) | | Change Station
Active Advisory: Fire Weather Warning Active Notice: Public Information Statement

Elev 5900 ft 39.49 °N, 104.77 °W | Updated 21 seconds ago

Clear
Clear
56.4 °F
Feels Like 56.4 °F
N
2.8
Wind Variable Wind from SSW
Gusts 3.7 mph

Today
High -- | Low -- °F
--% Chance of Precip.
Yesterday
High -- | Low -- °F
Precip. -- in
Pressure 29.62 in
Visibility 10.0 miles
Clouds Clear
Dew Point 30 °F
Humidity 36%
Rainfall 0.00 in
Snow Depth Not available.
6:46 AM 6:57 PM
New Moon, 2% visible
METAR KAPA 211153Z 20011KT 10SM CLR 18/M04 A2983 RMK AO2 SLP031 T01831044 10183 20106 55004
Pressure 29.62 in
Visibility 10.0 miles
Clouds Clear
Dew Point 30 °F
Humidity 36%
Rainfall 0.00 in
Snow Depth Not available.
6:46 AM 6:57 PM
New Moon, 2% visible
METAR KAPA 211153Z 20011KT 10SM CLR 18/M04 A2983 RMK AO2 SLP031 T01831044 10183 20106 55004

Get Your Daily Forecast Email!

Thanks for signing up!

Be on the lookout for a verification email in your inbox.

You'll start receiving severe weather alerts in your inbox..

×

10-Day Weather Forecast

Almanac

Astronomy

Sep. 21, 2017 Rise Set
Actual Time
Civil Twilight
Nautical Twilight
Astronomical Twilight
Moon
Length of Visible Light
Length of Day
Tomorrow will be .
, % of the Moon is Illuminated

Today's Extremes

State Highs State Lows

Community

WunderPhotos

Category 6

Welcome to Category 6. This is the collective home for Weather Underground's featured writeups by Dr. Jeff Masters (right), Bob Henson (left), Chris Burt, and other regular contributors.

Nearby

Air Quality

  Air Quality AQ Index Pollutant
Not available.

Snow Depth

Station Depth Elevation

Earthquake Activity

City Distance Mag. Time & Date
Minimum magnitude displayed is 2.5.

Coastal Water Temperatures

Place Temperature

Stations

Nearby Weather Stations

Station Location Temp. Windchill Dew Point Humidity Wind Precip. Elev Updated Type
                   

Watches & Warnings

Fire Weather Warning
Issued: 5:31 AM MDT Sep. 21, 2017 – National Weather Service

... Red flag warning remains in effect from noon today to 7 PM MDT
this evening for wind and low relative humidity for wind and low
relative humidity for the Palmer Divide and parts of the eastern
plains...

* affected area... fire weather zones 241... 245... 246... 247 and
249.

* Timing... noon to 7 PM MDT Thursday.

* Winds... south 15 to 25 mph with gusts up to 35 mph.

* Relative humidity... as low as 9 percent.

* Impacts... gusty winds along with a dry airmass and above
normal temperatures will cause critical fire weather
conditions on Thursday afternoon.

Precautionary/preparedness actions...

A red flag warning means that critical fire weather conditions
are either occurring now... .or will shortly. A combination of
strong winds... low relative humidity... and warm temperatures will
make fire starts more likely and can contribute to extreme fire
behavior.



Gimmestad